createdAt,value
2024-01-24T00:00:16.910Z,79.08
2024-01-24T00:01:16.985Z,78.88
2024-01-24T00:02:16.931Z,78.36
2024-01-24T00:03:17.043Z,78.56
2024-01-24T00:04:16.895Z,78.36
2024-01-24T00:05:16.895Z,78.15
2024-01-24T00:06:16.924Z,78.36
2024-01-24T00:07:17.049Z,78.36
2024-01-24T00:08:16.964Z,78.56
2024-01-24T00:09:16.880Z,78.67
2024-01-24T00:10:16.901Z,78.25
2024-01-24T00:11:16.843Z,78.05
2024-01-24T00:12:16.973Z,77.81
2024-01-24T00:13:16.797Z,77.81
2024-01-24T00:14:16.828Z,77.91
2024-01-24T00:15:16.871Z,78.22
2024-01-24T00:16:16.812Z,78.22
2024-01-24T00:17:16.875Z,78.22
2024-01-24T00:18:16.897Z,78.53
2024-01-24T00:19:16.876Z,78.46
2024-01-24T00:20:16.745Z,78.36
2024-01-24T00:21:16.772Z,78.36
2024-01-24T00:22:16.743Z,78.36
2024-01-24T00:23:16.701Z,77.94
2024-01-24T00:24:16.832Z,78.15
2024-01-24T00:25:16.661Z,78.15
2024-01-24T00:26:16.705Z,77.94
2024-01-24T00:27:16.836Z,77.84
2024-01-24T00:28:16.694Z,77.94
2024-01-24T00:29:16.680Z,77.94
2024-01-24T00:30:16.678Z,78.05
2024-01-24T00:31:16.699Z,78.15
2024-01-24T00:32:16.702Z,77.84
2024-01-24T00:33:16.633Z,77.94
2024-01-24T00:34:16.620Z,78.15
2024-01-24T00:35:16.592Z,77.94
2024-01-24T00:36:16.680Z,78.05
2024-01-24T00:37:16.607Z,78.05
2024-01-24T00:38:16.599Z,77.74
2024-01-24T00:39:16.686Z,77.74
2024-01-24T00:40:16.559Z,77.43
2024-01-24T00:41:16.617Z,77.64
2024-01-24T00:42:16.628Z,77.74
2024-01-24T00:43:16.577Z,77.53
2024-01-24T00:44:16.557Z,77.53
2024-01-24T00:45:16.589Z,77.12
2024-01-24T00:46:16.694Z,77.22
2024-01-24T00:47:16.486Z,76.98
2024-01-24T00:48:16.571Z,77.22
2024-01-24T00:49:16.540Z,77.43
2024-01-24T00:50:16.563Z,77.53
2024-01-24T00:51:16.577Z,76.46
2024-01-24T00:52:16.403Z,76.56
2024-01-24T00:53:16.446Z,76.77
2024-01-24T00:54:16.494Z,76.98
2024-01-24T00:55:16.438Z,76.98
2024-01-24T00:56:16.530Z,76.98
2024-01-24T00:57:16.454Z,76.77
2024-01-24T00:58:16.454Z,76.56
2024-01-24T00:59:16.455Z,76.77
2024-01-24T01:00:16.424Z,76.77
2024-01-24T01:01:16.465Z,76.77
2024-01-24T01:02:16.341Z,77.19
2024-01-24T01:03:16.420Z,76.91
2024-01-24T01:04:16.431Z,77.12
2024-01-24T01:05:16.421Z,76.56
2024-01-24T01:06:16.410Z,76.81
2024-01-24T01:07:16.311Z,77.01
2024-01-24T01:08:16.346Z,77.22
2024-01-24T01:09:16.291Z,77.33
2024-01-24T01:10:16.276Z,76.87
2024-01-24T01:11:16.391Z,76.56
2024-01-24T01:12:16.387Z,76.91
2024-01-24T01:13:16.299Z,76.56
2024-01-24T01:14:16.235Z,75.84
2024-01-24T01:15:16.315Z,75.95
2024-01-24T01:16:16.334Z,75.63
2024-01-24T01:17:16.245Z,75.57
2024-01-24T01:18:16.234Z,75.46
2024-01-24T01:19:16.359Z,75.43
2024-01-24T01:20:16.112Z,75.26
2024-01-24T01:21:16.285Z,75.53
2024-01-24T01:22:16.318Z,75.32
2024-01-24T01:23:16.172Z,74.91
2024-01-24T01:24:16.228Z,75.12
2024-01-24T01:25:16.125Z,74.40
2024-01-24T01:26:16.172Z,74.08
2024-01-24T01:27:16.241Z,73.88
2024-01-24T01:28:16.126Z,73.77
2024-01-24T01:29:16.133Z,73.36
2024-01-24T01:30:16.206Z,73.64
2024-01-24T01:31:16.149Z,74.29
2024-01-24T01:32:16.036Z,74.08
2024-01-24T01:33:16.206Z,73.85
2024-01-24T01:34:16.181Z,74.26
2024-01-24T01:35:16.164Z,73.67
2024-01-24T01:36:22.828Z,73.64
2024-01-24T01:37:16.204Z,73.54
2024-01-24T01:38:16.143Z,73.54
2024-01-24T01:39:16.110Z,73.74
2024-01-24T01:40:16.031Z,73.54
2024-01-24T01:41:16.128Z,73.22
2024-01-24T01:42:16.093Z,73.12
2024-01-24T01:43:15.948Z,73.22
2024-01-24T01:44:15.950Z,72.81
2024-01-24T01:45:16.153Z,72.71
2024-01-24T01:46:15.995Z,72.81
2024-01-24T01:47:15.964Z,72.91
2024-01-24T01:48:16.033Z,73.02
2024-01-24T01:49:16.093Z,73.16
2024-01-24T01:50:15.941Z,73.43
2024-01-24T01:51:16.001Z,73.54
2024-01-24T01:52:15.883Z,73.88
2024-01-24T01:53:15.894Z,74.19
2024-01-24T01:54:15.929Z,74.91
2024-01-24T01:55:15.841Z,75.84
2024-01-24T01:56:15.976Z,76.15
2024-01-24T01:57:15.914Z,76.36
2024-01-24T01:58:15.863Z,76.56
2024-01-24T01:59:15.791Z,76.91
2024-01-24T02:00:15.862Z,77.22
2024-01-24T02:01:16.073Z,78.05
2024-01-24T02:02:15.760Z,78.15
2024-01-24T02:03:15.878Z,78.25
2024-01-24T02:04:15.796Z,78.15
2024-01-24T02:05:15.873Z,78.25
2024-01-24T02:06:15.874Z,78.56
2024-01-24T02:07:15.814Z,78.70
2024-01-24T02:08:15.705Z,78.91
2024-01-24T02:09:15.797Z,79.22
2024-01-24T02:10:15.785Z,79.53
2024-01-24T02:11:15.705Z,79.53
2024-01-24T02:12:15.777Z,79.74
2024-01-24T02:13:15.658Z,79.74
2024-01-24T02:14:15.684Z,80.05
2024-01-24T02:15:15.727Z,79.98
2024-01-24T02:16:18.997Z,80.50
2024-01-24T02:17:15.676Z,80.50
2024-01-24T02:18:15.817Z,80.81
2024-01-24T02:19:15.688Z,81.12
2024-01-24T02:20:15.687Z,80.71
2024-01-24T02:21:15.641Z,80.81
2024-01-24T02:22:15.481Z,81.02
2024-01-24T02:23:15.597Z,81.74
2024-01-24T02:24:15.608Z,81.84
2024-01-24T02:25:15.607Z,81.74
2024-01-24T02:26:15.633Z,81.74
2024-01-24T02:27:15.541Z,81.54
2024-01-24T02:28:15.525Z,81.54
2024-01-24T02:29:15.605Z,81.88
2024-01-24T02:30:15.603Z,81.99
2024-01-24T02:31:15.463Z,81.99
2024-01-24T02:32:15.522Z,82.09
2024-01-24T02:33:15.683Z,81.88
2024-01-24T02:34:15.609Z,82.50
2024-01-24T02:35:15.569Z,82.81
2024-01-24T02:36:15.512Z,83.12
2024-01-24T02:37:15.483Z,83.12
2024-01-24T02:38:15.472Z,83.33
2024-01-24T02:39:15.445Z,83.33
2024-01-24T02:40:15.504Z,83.58
2024-01-24T02:41:15.365Z,83.64
2024-01-24T02:42:15.495Z,83.54
2024-01-24T02:43:15.339Z,83.54
2024-01-24T02:44:15.364Z,83.89
2024-01-24T02:45:15.492Z,83.85
2024-01-24T02:46:15.428Z,83.89
2024-01-24T02:47:15.356Z,84.20
2024-01-24T02:48:15.579Z,84.20
2024-01-24T02:49:15.415Z,83.68
2024-01-24T02:50:15.411Z,83.58
2024-01-24T02:51:15.386Z,83.68
2024-01-24T02:52:16.140Z,83.68
2024-01-24T02:53:15.252Z,83.58
2024-01-24T02:54:15.339Z,84.09
2024-01-24T02:55:15.409Z,84.30
2024-01-24T02:56:15.286Z,84.41
2024-01-24T02:57:15.230Z,84.61
2024-01-24T02:58:15.271Z,84.55
2024-01-24T02:59:15.363Z,85.17
2024-01-24T03:00:15.291Z,84.96
2024-01-24T03:01:15.246Z,85.48
2024-01-24T03:02:15.192Z,85.27
2024-01-24T03:03:15.205Z,85.69
2024-01-24T03:04:15.373Z,85.38
2024-01-24T03:05:15.176Z,85.48
2024-01-24T03:06:15.320Z,86.62
2024-01-24T03:07:15.241Z,86.83
2024-01-24T03:08:15.157Z,86.62
2024-01-24T03:09:15.253Z,86.62
2024-01-24T03:10:15.187Z,86.72
2024-01-24T03:11:15.170Z,87.24
2024-01-24T03:12:15.127Z,87.35
2024-01-24T03:13:15.193Z,87.35
2024-01-24T03:14:15.142Z,86.62
2024-01-24T03:15:15.136Z,86.31
2024-01-24T03:16:15.066Z,86.52
2024-01-24T03:17:15.028Z,86.62
2024-01-24T03:18:15.078Z,86.52
2024-01-24T03:19:15.305Z,86.52
2024-01-24T03:20:14.996Z,86.52
2024-01-24T03:21:14.992Z,86.21
2024-01-24T03:22:15.037Z,86.62
2024-01-24T03:23:15.030Z,86.52
2024-01-24T03:24:15.032Z,86.62
2024-01-24T03:25:14.997Z,86.83
2024-01-24T03:26:15.047Z,86.62
2024-01-24T03:27:14.959Z,86.83
2024-01-24T03:28:14.942Z,86.62
2024-01-24T03:29:14.960Z,86.72
2024-01-24T03:30:14.976Z,86.62
2024-01-24T03:31:14.983Z,86.76
2024-01-24T03:32:14.893Z,86.93
2024-01-24T03:33:14.967Z,87.24
2024-01-24T03:34:15.198Z,87.04
2024-01-24T03:35:14.862Z,87.35
2024-01-24T03:36:14.880Z,87.28
2024-01-24T03:37:14.902Z,87.07
2024-01-24T03:38:14.840Z,86.87
2024-01-24T03:39:14.935Z,86.76
2024-01-24T03:40:14.896Z,86.66
2024-01-24T03:41:14.757Z,86.66
2024-01-24T03:42:14.871Z,86.35
2024-01-24T03:43:14.790Z,86.66
2024-01-24T03:44:14.870Z,86.66
2024-01-24T03:45:14.813Z,86.55
2024-01-24T03:46:14.749Z,86.45
2024-01-24T03:47:14.821Z,86.45
2024-01-24T03:48:14.969Z,86.55
2024-01-24T03:49:14.874Z,86.35
2024-01-24T03:50:14.827Z,86.55
2024-01-24T03:51:14.715Z,86.55
2024-01-24T03:52:14.699Z,86.55
2024-01-24T03:53:14.744Z,86.87
2024-01-24T03:54:14.729Z,87.07
2024-01-24T03:55:14.675Z,86.97
2024-01-24T03:56:14.675Z,86.76
2024-01-24T03:57:14.711Z,86.66
2024-01-24T03:58:14.732Z,87.12
2024-01-24T03:59:14.681Z,87.12
2024-01-24T04:00:14.745Z,87.22
2024-01-24T04:01:14.734Z,87.74
2024-01-24T04:02:14.724Z,87.63
2024-01-24T04:03:14.745Z,88.26
2024-01-24T04:04:14.647Z,87.95
2024-01-24T04:05:14.591Z,87.74
2024-01-24T04:06:14.731Z,87.63
2024-01-24T04:07:14.677Z,87.63
2024-01-24T04:08:14.526Z,87.43
2024-01-24T04:09:14.624Z,87.84
2024-01-24T04:10:14.560Z,88.05
2024-01-24T04:11:14.577Z,87.84
2024-01-24T04:12:14.664Z,87.84
2024-01-24T04:13:14.490Z,87.74
2024-01-24T04:14:14.528Z,87.53
2024-01-24T04:15:14.603Z,87.74
2024-01-24T04:16:14.471Z,87.74
2024-01-24T04:17:14.543Z,88.15
2024-01-24T04:18:14.645Z,88.26
2024-01-24T04:19:14.503Z,88.36
2024-01-24T04:20:14.471Z,88.46
2024-01-24T04:21:14.502Z,88.36
2024-01-24T04:22:14.477Z,88.36
2024-01-24T04:23:14.312Z,88.46
2024-01-24T04:24:14.483Z,88.46
2024-01-24T04:25:14.431Z,88.26
2024-01-24T04:26:14.470Z,88.15
2024-01-24T04:27:14.325Z,88.26
2024-01-24T04:28:14.347Z,88.46
2024-01-24T04:29:14.309Z,88.67
2024-01-24T04:30:14.407Z,88.67
2024-01-24T04:31:14.387Z,88.67
2024-01-24T04:32:14.389Z,88.98
2024-01-24T04:33:14.378Z,88.67
2024-01-24T04:34:14.369Z,88.67
2024-01-24T04:35:14.375Z,88.57
2024-01-24T04:36:14.393Z,88.36
2024-01-24T04:37:14.266Z,88.46
2024-01-24T04:38:14.259Z,88.57
2024-01-24T04:39:14.300Z,88.57
2024-01-24T04:40:14.400Z,88.57
2024-01-24T04:41:14.322Z,88.57
2024-01-24T04:42:16.917Z,88.67
2024-01-24T04:43:14.231Z,88.46
2024-01-24T04:44:14.221Z,88.46
2024-01-24T04:45:14.207Z,88.46
2024-01-24T04:46:14.281Z,88.26
2024-01-24T04:47:14.275Z,87.95
2024-01-24T04:48:14.303Z,87.74
2024-01-24T04:49:26.157Z,87.68
2024-01-24T04:50:14.429Z,87.68
2024-01-24T04:51:14.276Z,87.88
2024-01-24T04:52:14.187Z,88.09
2024-01-24T04:53:14.141Z,88.40
2024-01-24T04:54:14.220Z,88.51
2024-01-24T04:55:14.251Z,88.51
2024-01-24T04:56:14.191Z,88.61
2024-01-24T04:57:14.253Z,88.71
2024-01-24T04:58:14.196Z,88.61
2024-01-24T04:59:14.048Z,88.51
2024-01-24T05:00:14.400Z,88.71
2024-01-24T05:01:14.158Z,88.71
2024-01-24T05:02:14.074Z,88.51
2024-01-24T05:03:14.093Z,88.61
2024-01-24T05:04:14.163Z,88.82
2024-01-24T05:05:14.097Z,89.03
2024-01-24T05:06:14.071Z,88.92
2024-01-24T05:07:14.059Z,88.82
2024-01-24T05:08:14.012Z,88.92
2024-01-24T05:09:14.111Z,88.71
2024-01-24T05:10:13.960Z,88.92
2024-01-24T05:11:13.949Z,89.13
2024-01-24T05:12:14.086Z,89.34
2024-01-24T05:13:13.973Z,89.34
2024-01-24T05:14:13.989Z,89.54
2024-01-24T05:15:13.964Z,89.44
2024-01-24T05:16:13.925Z,89.54
2024-01-24T05:17:13.883Z,89.44
2024-01-24T05:18:14.027Z,89.34
2024-01-24T05:19:14.059Z,89.34
2024-01-24T05:20:13.926Z,89.23
2024-01-24T05:21:13.905Z,89.03
2024-01-24T05:22:13.824Z,88.92
2024-01-24T05:23:13.826Z,88.92
2024-01-24T05:24:13.904Z,88.71
2024-01-24T05:25:13.801Z,88.82
2024-01-24T05:26:13.890Z,88.82
2024-01-24T05:27:13.876Z,88.92
2024-01-24T05:28:13.940Z,89.23
2024-01-24T05:29:13.862Z,89.23
2024-01-24T05:30:20.276Z,89.34
2024-01-24T05:31:13.766Z,89.34
2024-01-24T05:32:13.649Z,89.23
2024-01-24T05:33:13.935Z,89.23
2024-01-24T05:34:13.832Z,89.34
2024-01-24T05:35:13.702Z,89.37
2024-01-24T05:36:13.737Z,89.48
2024-01-24T05:37:13.725Z,89.27
2024-01-24T05:38:13.710Z,89.37
2024-01-24T05:39:13.705Z,89.34
2024-01-24T05:40:13.655Z,89.75
2024-01-24T05:41:13.647Z,89.96
2024-01-24T05:42:13.768Z,90.17
2024-01-24T05:43:13.792Z,89.96
2024-01-24T05:44:13.638Z,89.86
2024-01-24T05:45:13.711Z,89.65
2024-01-24T05:46:13.612Z,89.86
2024-01-24T05:47:13.550Z,89.96
2024-01-24T05:48:13.848Z,89.96
2024-01-24T05:49:13.745Z,89.75
2024-01-24T05:50:13.583Z,89.79
2024-01-24T05:51:13.598Z,89.79
2024-01-24T05:52:13.623Z,89.79
2024-01-24T05:53:13.640Z,90.10
2024-01-24T05:54:13.560Z,90.00
2024-01-24T05:55:13.788Z,90.10
2024-01-24T05:56:13.504Z,90.31
2024-01-24T05:57:13.629Z,90.10
2024-01-24T05:58:13.569Z,90.20
2024-01-24T05:59:15.565Z,90.41
2024-01-24T06:00:13.573Z,89.79
2024-01-24T06:01:13.632Z,88.65
2024-01-24T06:02:13.584Z,88.44
2024-01-24T06:03:13.535Z,88.96
2024-01-24T06:04:13.576Z,89.27
2024-01-24T06:05:13.737Z,89.37
2024-01-24T06:06:13.550Z,89.79
2024-01-24T06:07:13.632Z,90.35
2024-01-24T06:08:13.389Z,90.25
2024-01-24T06:09:13.532Z,90.35
2024-01-24T06:10:13.371Z,90.77
2024-01-24T06:11:13.353Z,90.97
2024-01-24T06:12:13.488Z,90.97
2024-01-24T06:13:13.338Z,90.66
2024-01-24T06:14:13.356Z,90.41
2024-01-24T06:15:13.470Z,90.20
2024-01-24T06:16:13.335Z,90.41
2024-01-24T06:17:13.437Z,90.31
2024-01-24T06:18:13.316Z,90.41
2024-01-24T06:19:13.398Z,90.93
2024-01-24T06:20:13.326Z,90.93
2024-01-24T06:21:13.356Z,90.83
2024-01-24T06:22:13.315Z,90.72
2024-01-24T06:23:13.237Z,90.62
2024-01-24T06:24:13.257Z,90.72
2024-01-24T06:25:13.284Z,90.72
2024-01-24T06:26:13.288Z,90.62
2024-01-24T06:27:13.254Z,90.41
2024-01-24T06:28:13.202Z,90.31
2024-01-24T06:29:13.188Z,90.41
2024-01-24T06:30:20.091Z,90.41
2024-01-24T06:31:13.268Z,90.31
2024-01-24T06:32:13.108Z,90.52
2024-01-24T06:33:13.132Z,90.41
2024-01-24T06:34:13.169Z,90.41
2024-01-24T06:35:13.095Z,90.20
2024-01-24T06:36:13.180Z,90.00
2024-01-24T06:37:13.127Z,89.69
2024-01-24T06:38:13.071Z,89.06
2024-01-24T06:39:13.040Z,88.65
2024-01-24T06:40:13.149Z,89.42
2024-01-24T06:41:13.089Z,90.35
2024-01-24T06:42:13.013Z,90.25
2024-01-24T06:43:13.107Z,90.66
2024-01-24T06:44:13.002Z,90.25
2024-01-24T06:45:13.093Z,90.35
2024-01-24T06:46:13.031Z,91.28
2024-01-24T06:47:12.972Z,91.60
2024-01-24T06:48:13.002Z,91.49
2024-01-24T06:49:13.030Z,91.39
2024-01-24T06:50:13.024Z,91.70
2024-01-24T06:51:12.943Z,91.70
2024-01-24T06:52:12.978Z,91.70
2024-01-24T06:53:12.901Z,91.60
2024-01-24T06:54:12.939Z,91.45
2024-01-24T06:55:13.061Z,91.55
2024-01-24T06:56:12.930Z,91.76
2024-01-24T06:57:12.769Z,91.76
2024-01-24T06:58:12.848Z,91.66
2024-01-24T06:59:12.871Z,91.86
2024-01-24T07:00:12.859Z,91.76
2024-01-24T07:01:12.906Z,92.18
2024-01-24T07:02:12.845Z,92.18
2024-01-24T07:03:12.838Z,92.38
2024-01-24T07:04:12.956Z,92.80
2024-01-24T07:05:12.874Z,93.07
2024-01-24T07:06:12.814Z,93.38
2024-01-24T07:07:12.772Z,93.49
2024-01-24T07:08:12.741Z,93.70
2024-01-24T07:09:12.791Z,94.01
2024-01-24T07:10:13.252Z,94.06
2024-01-24T07:11:12.778Z,94.48
2024-01-24T07:12:12.796Z,94.68
2024-01-24T07:13:12.700Z,94.68
2024-01-24T07:14:12.733Z,95.10
2024-01-24T07:15:12.772Z,94.95
2024-01-24T07:16:12.699Z,95.06
2024-01-24T07:17:12.660Z,95.16
2024-01-24T07:18:12.767Z,95.26
2024-01-24T07:19:12.761Z,95.16
2024-01-24T07:20:12.727Z,95.01
2024-01-24T07:21:12.658Z,94.81
2024-01-24T07:22:12.675Z,94.91
2024-01-24T07:23:12.624Z,94.70
2024-01-24T07:24:12.621Z,94.29
2024-01-24T07:25:12.693Z,94.18
2024-01-24T07:26:12.613Z,94.04
2024-01-24T07:27:12.615Z,93.62
2024-01-24T07:28:12.650Z,93.41
2024-01-24T07:29:12.672Z,92.69
2024-01-24T07:30:12.617Z,91.97
2024-01-24T07:31:12.520Z,90.72
2024-01-24T07:32:12.601Z,90.41
2024-01-24T07:33:12.657Z,90.41
2024-01-24T07:34:12.673Z,90.62
2024-01-24T07:35:12.539Z,91.14
2024-01-24T07:36:12.498Z,90.93
2024-01-24T07:37:12.486Z,91.76
2024-01-24T07:38:12.474Z,91.76
2024-01-24T07:39:12.554Z,91.35
2024-01-24T07:40:12.512Z,92.69
2024-01-24T07:41:12.452Z,93.10
2024-01-24T07:42:12.452Z,92.18
2024-01-24T07:43:12.471Z,91.97
2024-01-24T07:44:12.532Z,91.86
2024-01-24T07:45:12.418Z,91.76
2024-01-24T07:46:12.534Z,91.66
2024-01-24T07:47:12.398Z,91.55
2024-01-24T07:48:12.540Z,91.45
2024-01-24T07:49:12.621Z,91.24
2024-01-24T07:50:12.350Z,91.24
2024-01-24T07:51:12.387Z,91.24
2024-01-24T07:52:13.207Z,91.24
2024-01-24T07:53:12.326Z,91.24
2024-01-24T07:54:12.391Z,91.35
2024-01-24T07:55:13.201Z,91.55
2024-01-24T07:56:20.720Z,91.55
2024-01-24T07:57:12.349Z,91.55
2024-01-24T07:58:12.363Z,91.55
2024-01-24T07:59:12.367Z,91.86
2024-01-24T08:00:12.263Z,91.76
2024-01-24T08:01:12.360Z,91.72
2024-01-24T08:02:12.338Z,91.61
2024-01-24T08:03:12.270Z,91.72
2024-01-24T08:04:12.380Z,91.82
2024-01-24T08:05:12.270Z,91.82
2024-01-24T08:06:12.243Z,91.82
2024-01-24T08:07:12.251Z,91.82
2024-01-24T08:08:12.183Z,91.72
2024-01-24T08:09:13.271Z,91.61
2024-01-24T08:10:12.160Z,91.51
2024-01-24T08:11:12.229Z,91.51
2024-01-24T08:12:12.142Z,91.36
2024-01-24T08:13:12.161Z,91.26
2024-01-24T08:14:12.205Z,91.57
2024-01-24T08:15:12.229Z,91.78
2024-01-24T08:16:12.121Z,91.67
2024-01-24T08:17:12.197Z,91.67
2024-01-24T08:18:12.202Z,91.78
2024-01-24T08:19:12.283Z,91.67
2024-01-24T08:20:12.086Z,91.67
2024-01-24T08:21:12.086Z,91.67
2024-01-24T08:22:12.057Z,91.78
2024-01-24T08:23:12.134Z,91.99
2024-01-24T08:24:12.119Z,91.78
2024-01-24T08:25:12.078Z,91.78
2024-01-24T08:26:12.052Z,92.15
2024-01-24T08:27:12.064Z,92.46
2024-01-24T08:28:12.167Z,92.25
2024-01-24T08:29:19.039Z,92.15
2024-01-24T08:30:11.961Z,92.36
2024-01-24T08:31:11.967Z,92.46
2024-01-24T08:32:11.946Z,92.36
2024-01-24T08:33:12.208Z,92.25
2024-01-24T08:34:12.086Z,92.46
2024-01-24T08:35:11.961Z,92.87
2024-01-24T08:36:11.894Z,92.83
2024-01-24T08:37:11.960Z,92.72
2024-01-24T08:38:11.997Z,92.63
2024-01-24T08:39:13.058Z,92.32
2024-01-24T08:40:11.865Z,92.42
2024-01-24T08:41:11.897Z,92.11
2024-01-24T08:42:11.862Z,91.28
2024-01-24T08:43:11.959Z,91.17
2024-01-24T08:44:11.872Z,91.07
2024-01-24T08:45:11.829Z,91.03
2024-01-24T08:46:11.913Z,90.93
2024-01-24T08:47:11.844Z,90.83
2024-01-24T08:48:11.952Z,90.72
2024-01-24T08:49:11.948Z,91.03
2024-01-24T08:50:11.904Z,91.24
2024-01-24T08:51:11.760Z,91.34
2024-01-24T08:52:11.821Z,91.03
2024-01-24T08:53:11.879Z,90.89
2024-01-24T08:54:11.732Z,91.20
2024-01-24T08:55:11.860Z,91.09
2024-01-24T08:56:11.719Z,90.89
2024-01-24T08:57:11.731Z,90.53
2024-01-24T08:58:11.905Z,90.43
2024-01-24T08:59:11.688Z,90.19
2024-01-24T09:00:11.727Z,89.98
2024-01-24T09:01:11.753Z,90.19
2024-01-24T09:02:11.760Z,90.08
2024-01-24T09:03:11.672Z,89.98
2024-01-24T09:04:11.725Z,89.62
2024-01-24T09:05:11.719Z,89.62
2024-01-24T09:06:11.669Z,89.42
2024-01-24T09:07:11.699Z,89.62
2024-01-24T09:08:11.717Z,89.79
2024-01-24T09:09:11.622Z,90.41
2024-01-24T09:10:11.672Z,90.31
2024-01-24T09:11:11.595Z,90.41
2024-01-24T09:12:11.662Z,90.72
2024-01-24T09:13:11.641Z,89.58
2024-01-24T09:14:11.571Z,88.76
2024-01-24T09:15:11.546Z,88.24
2024-01-24T09:16:11.718Z,88.14
2024-01-24T09:17:11.997Z,87.69
2024-01-24T09:18:12.491Z,87.48
2024-01-24T09:19:11.631Z,87.24
2024-01-24T09:20:11.790Z,87.44
2024-01-24T09:21:11.556Z,87.85
2024-01-24T09:22:11.572Z,87.75
2024-01-24T09:23:11.495Z,87.54
2024-01-24T09:24:11.462Z,87.54
2024-01-24T09:25:13.163Z,87.75
2024-01-24T09:26:11.557Z,87.85
2024-01-24T09:27:11.466Z,88.06
2024-01-24T09:28:12.312Z,87.85
2024-01-24T09:29:11.424Z,87.65
2024-01-24T09:30:11.584Z,87.75
2024-01-24T09:31:11.500Z,87.75
2024-01-24T09:32:11.400Z,87.96
2024-01-24T09:33:11.580Z,88.37
2024-01-24T09:34:11.518Z,88.95
2024-01-24T09:35:11.978Z,89.36
2024-01-24T09:36:11.400Z,89.25
2024-01-24T09:37:11.338Z,89.25
2024-01-24T09:38:11.356Z,88.70
2024-01-24T09:39:11.295Z,88.49
2024-01-24T09:40:11.600Z,88.08
2024-01-24T09:41:11.421Z,87.36
2024-01-24T09:42:11.288Z,87.15
2024-01-24T09:43:11.311Z,87.05
2024-01-24T09:44:11.277Z,87.26
2024-01-24T09:45:11.322Z,87.05
2024-01-24T09:46:11.339Z,87.05
2024-01-24T09:47:11.228Z,87.19
2024-01-24T09:48:11.380Z,87.26
2024-01-24T09:49:11.457Z,87.15
2024-01-24T09:50:11.161Z,86.99
2024-01-24T09:51:11.290Z,86.99
2024-01-24T09:52:11.231Z,87.05
2024-01-24T09:53:11.167Z,87.40
2024-01-24T09:54:11.246Z,87.40
2024-01-24T09:55:11.578Z,87.19
2024-01-24T09:56:11.233Z,87.09
2024-01-24T09:57:11.189Z,86.99
2024-01-24T09:58:11.961Z,86.99
2024-01-24T09:59:11.181Z,87.40
2024-01-24T10:00:11.229Z,87.60
2024-01-24T10:01:11.180Z,87.60
2024-01-24T10:02:11.112Z,87.71
2024-01-24T10:03:11.092Z,87.60
2024-01-24T10:04:11.293Z,87.60
2024-01-24T10:05:11.100Z,88.12
2024-01-24T10:06:11.374Z,88.64
2024-01-24T10:07:11.107Z,88.64
2024-01-24T10:08:10.983Z,88.33
2024-01-24T10:09:11.152Z,88.53
2024-01-24T10:10:11.230Z,89.46
2024-01-24T10:11:11.052Z,89.67
2024-01-24T10:12:11.020Z,89.46
2024-01-24T10:13:11.101Z,89.25
2024-01-24T10:14:11.069Z,89.25
2024-01-24T10:15:11.001Z,88.95
2024-01-24T10:16:11.012Z,88.95
2024-01-24T10:17:10.969Z,89.01
2024-01-24T10:18:11.032Z,89.52
2024-01-24T10:19:11.095Z,89.52
2024-01-24T10:20:10.910Z,89.31
2024-01-24T10:21:10.890Z,89.22
2024-01-24T10:22:11.368Z,89.22
2024-01-24T10:23:10.904Z,89.11
2024-01-24T10:24:11.047Z,88.80
2024-01-24T10:25:11.039Z,88.39
2024-01-24T10:26:10.960Z,88.08
2024-01-24T10:27:10.843Z,87.77
2024-01-24T10:28:11.048Z,87.77
2024-01-24T10:29:10.806Z,87.87
2024-01-24T10:30:10.847Z,88.18
2024-01-24T10:31:10.865Z,88.08
2024-01-24T10:32:10.791Z,87.98
2024-01-24T10:33:10.966Z,87.87
2024-01-24T10:34:12.138Z,87.46
2024-01-24T10:35:11.002Z,87.36
2024-01-24T10:36:17.968Z,87.15
2024-01-24T10:37:10.805Z,87.05
2024-01-24T10:38:10.842Z,87.15
2024-01-24T10:39:10.718Z,87.26
2024-01-24T10:40:10.847Z,86.95
2024-01-24T10:41:10.699Z,86.95
2024-01-24T10:42:12.409Z,87.15
2024-01-24T10:43:10.922Z,87.46
2024-01-24T10:44:10.947Z,87.57
2024-01-24T10:45:10.715Z,87.67
2024-01-24T10:46:10.772Z,87.77
2024-01-24T10:47:10.721Z,87.67
2024-01-24T10:48:10.707Z,87.77
2024-01-24T10:49:10.785Z,88.08
2024-01-24T10:50:10.877Z,88.18
2024-01-24T10:51:10.628Z,87.77
2024-01-24T10:52:10.822Z,87.57
2024-01-24T10:53:10.616Z,87.36
2024-01-24T10:54:10.622Z,87.26
2024-01-24T10:55:10.654Z,87.15
2024-01-24T10:56:10.608Z,87.15
2024-01-24T10:57:10.638Z,87.05
2024-01-24T10:58:10.661Z,87.05
2024-01-24T10:59:10.535Z,87.15
2024-01-24T11:00:10.548Z,87.15
2024-01-24T11:01:10.697Z,86.95
2024-01-24T11:02:10.648Z,86.80
2024-01-24T11:03:10.589Z,87.01
2024-01-24T11:04:10.651Z,87.12
2024-01-24T11:05:10.542Z,87.32
2024-01-24T11:06:10.537Z,87.22
2024-01-24T11:07:10.510Z,87.22
2024-01-24T11:08:10.440Z,87.01
2024-01-24T11:09:10.426Z,87.01
2024-01-24T11:10:10.891Z,86.80
2024-01-24T11:11:10.521Z,87.01
2024-01-24T11:12:10.455Z,87.01
2024-01-24T11:13:10.495Z,86.91
2024-01-24T11:14:10.440Z,86.60
2024-01-24T11:15:10.426Z,87.32
2024-01-24T11:16:10.671Z,88.14
2024-01-24T11:17:10.370Z,88.24
2024-01-24T11:18:10.464Z,88.14
2024-01-24T11:19:10.414Z,88.04
2024-01-24T11:20:10.402Z,87.94
2024-01-24T11:21:10.456Z,87.90
2024-01-24T11:22:16.751Z,88.10
2024-01-24T11:23:10.393Z,88.51
2024-01-24T11:24:10.299Z,88.31
2024-01-24T11:25:10.370Z,88.41
2024-01-24T11:26:10.356Z,88.41
2024-01-24T11:27:10.270Z,87.90
2024-01-24T11:28:10.292Z,87.38
2024-01-24T11:29:12.856Z,87.18
2024-01-24T11:30:10.370Z,87.38
2024-01-24T11:31:10.364Z,87.28
2024-01-24T11:32:13.506Z,86.93
2024-01-24T11:33:10.260Z,86.32
2024-01-24T11:34:10.807Z,85.90
2024-01-24T11:35:10.242Z,85.55
2024-01-24T11:36:10.168Z,86.07
2024-01-24T11:37:10.232Z,85.25
2024-01-24T11:38:19.941Z,84.59
2024-01-24T11:39:10.150Z,84.76
2024-01-24T11:40:10.264Z,82.73
2024-01-24T11:41:10.183Z,82.69
2024-01-24T11:42:10.132Z,82.24
2024-01-24T11:43:10.231Z,81.94
2024-01-24T11:44:10.118Z,82.28
2024-01-24T11:45:10.192Z,82.39
2024-01-24T11:46:11.065Z,83.14
2024-01-24T11:47:10.063Z,83.04
2024-01-24T11:48:10.219Z,81.74
2024-01-24T11:49:10.123Z,81.64
2024-01-24T11:50:10.139Z,80.99
2024-01-24T11:51:10.111Z,81.40
2024-01-24T11:52:10.056Z,81.29
2024-01-24T11:53:10.033Z,80.85
2024-01-24T11:54:10.025Z,80.33
2024-01-24T11:55:10.142Z,80.44
2024-01-24T11:56:10.000Z,81.26
2024-01-24T11:57:10.032Z,80.85
2024-01-24T11:58:10.067Z,80.67
2024-01-24T11:59:10.088Z,79.71
2024-01-24T12:00:10.061Z,79.27
2024-01-24T12:01:10.077Z,78.13
2024-01-24T12:02:10.010Z,75.92
2024-01-24T12:03:09.989Z,72.89
2024-01-24T12:04:10.086Z,71.30
2024-01-24T12:05:09.986Z,68.79
2024-01-24T12:06:09.981Z,68.24
2024-01-24T12:07:10.080Z,67.63
2024-01-24T12:08:09.937Z,65.64
2024-01-24T12:09:09.883Z,63.82
2024-01-24T12:10:09.993Z,62.71
2024-01-24T12:11:09.834Z,62.81
2024-01-24T12:12:09.918Z,63.24
2024-01-24T12:13:09.934Z,62.60
2024-01-24T12:14:09.880Z,59.92
2024-01-24T12:15:09.789Z,55.34
2024-01-24T12:16:10.017Z,52.39
2024-01-24T12:17:09.825Z,49.98
2024-01-24T12:18:10.025Z,49.57
2024-01-24T12:19:09.994Z,50.25
2024-01-24T12:20:10.758Z,50.43
2024-01-24T12:21:09.887Z,48.87
2024-01-24T12:22:09.911Z,48.75
2024-01-24T12:23:09.816Z,46.89
2024-01-24T12:24:09.766Z,46.89
2024-01-24T12:25:09.866Z,46.47
2024-01-24T12:26:09.826Z,45.72
2024-01-24T12:27:09.770Z,45.22
2024-01-24T12:28:09.829Z,44.62
2024-01-24T12:29:09.701Z,47.26
2024-01-24T12:30:11.258Z,49.65
2024-01-24T12:31:09.661Z,51.66
2024-01-24T12:32:09.660Z,53.83
2024-01-24T12:33:09.905Z,54.99
2024-01-24T12:34:09.682Z,56.13
2024-01-24T12:35:09.713Z,56.53
2024-01-24T12:36:09.699Z,55.42
2024-01-24T12:37:09.679Z,56.02
2024-01-24T12:38:09.683Z,54.91
2024-01-24T12:39:09.591Z,53.55
2024-01-24T12:40:09.617Z,52.64
2024-01-24T12:41:09.604Z,52.76
2024-01-24T12:42:09.716Z,53.20
2024-01-24T12:43:09.661Z,54.03
2024-01-24T12:44:09.560Z,54.03
2024-01-24T12:45:09.572Z,55.36
2024-01-24T12:46:10.589Z,54.76
2024-01-24T12:47:09.770Z,55.09
2024-01-24T12:48:09.570Z,55.29
2024-01-24T12:49:09.571Z,55.62
2024-01-24T12:50:09.634Z,56.33
2024-01-24T12:51:09.513Z,55.95
2024-01-24T12:52:09.620Z,56.56